Time;durP1;ratioP1;P1;durP2;ratioP2;P2;SDS_P1;SDS_P2;PMS_P1;PMS_P2;Temp;Humidity;BMP_temperature;BMP_pressure;BME280_temperature;BME280_humidity;BME280_pressure;Samples;Min_cycle;Max_cycle;Signal;HPM_P1;HPM_P2
2024/01/07 00:00:22;;;;;;;36.40;19.80;;;0.10;99.90;;;;;;5057748;28;20025;-54
2024/01/07 00:02:47;;;;;;;34.13;17.50;;;0.10;99.90;;;;;;5051485;28;20025;-54
2024/01/07 15:25:13;;;;;;;53.22;23.50;;;-3.40;99.90;;;;;;5123762;27;20130;-59
2024/01/07 15:27:38;;;;;;;61.42;27.35;;;-3.50;99.90;;;;;;5123913;28;20031;-61
2024/01/07 15:30:05;;;;;;;55.13;27.27;;;-3.60;99.90;;;;;;5124073;28;20091;-61
2024/01/07 15:32:30;;;;;;;54.55;26.80;;;-3.50;99.90;;;;;;5122163;28;20035;-59
2024/01/07 15:34:57;;;;;;;55.73;26.00;;;-3.50;99.90;;;;;;5123541;28;20027;-58
2024/01/07 15:37:23;;;;;;;53.53;25.13;;;-3.50;99.90;;;;;;5123487;28;20027;-61
2024/01/07 15:39:51;;;;;;;44.38;23.10;;;-3.50;99.90;;;;;;5123622;28;20391;-57
2024/01/07 15:42:17;;;;;;;56.45;23.77;;;-3.50;99.90;;;;;;5123292;28;20034;-60
2024/01/07 15:44:44;;;;;;;56.53;25.70;;;-3.60;99.90;;;;;;5122356;28;20549;-64
2024/01/07 15:47:12;;;;;;;50.55;25.02;;;-3.50;99.90;;;;;;5122773;28;20030;-60
2024/01/07 15:49:38;;;;;;;54.55;27.17;;;-3.60;99.90;;;;;;5122447;28;20023;-61
2024/01/07 15:52:05;;;;;;;49.37;24.90;;;-3.60;99.90;;;;;;5104712;28;20030;-61
2024/01/07 15:54:30;;;;;;;;;;;-3.50;99.90;;;;;;5121660;28;20048;-59
2024/01/07 15:56:56;;;;;;;53.25;25.05;;;-3.60;99.90;;;;;;5123174;28;20364;-57
2024/01/07 15:59:22;;;;;;;55.87;26.23;;;-3.50;99.90;;;;;;5123174;28;20076;-55
2024/01/07 16:01:48;;;;;;;52.10;26.83;;;-3.40;99.90;;;;;;5123132;28;20094;-57
2024/01/07 16:04:14;;;;;;;56.70;25.88;;;-3.50;99.90;;;;;;5122618;28;20031;-54
2024/01/07 16:06:41;;;;;;;53.37;24.50;;;-3.50;99.90;;;;;;5122961;28;20096;-61
2024/01/07 16:09:08;;;;;;;50.38;26.13;;;-3.50;99.90;;;;;;5122611;28;20066;-59
2024/01/07 16:11:34;;;;;;;50.80;25.65;;;-3.60;99.90;;;;;;5122713;28;20019;-58
2024/01/07 16:13:59;;;;;;;56.63;27.40;;;-3.60;99.90;;;;;;5122943;28;20042;-56
2024/01/07 16:16:25;;;;;;;51.07;26.20;;;-3.60;99.90;;;;;;5123010;28;20761;-59
2024/01/07 16:18:51;;;;;;;45.57;25.00;;;-3.60;99.90;;;;;;5120626;28;20031;-60
2024/01/07 16:21:20;;;;;;;53.03;27.37;;;-3.60;99.90;;;;;;5122909;28;20023;-59
2024/01/07 16:23:46;;;;;;;50.20;26.08;;;-3.40;99.90;;;;;;5121336;27;20052;-62
2024/01/07 16:26:11;;;;;;;48.10;26.07;;;-3.50;99.90;;;;;;5123505;28;20061;-59
2024/01/07 16:28:37;;;;;;;49.03;24.45;;;-3.50;99.90;;;;;;5120679;28;20474;-59
2024/01/07 16:31:04;;;;;;;61.10;25.70;;;-3.60;99.90;;;;;;5123025;28;20482;-60
2024/01/07 16:33:32;;;;;;;50.88;26.15;;;-3.50;99.90;;;;;;5122820;28;20023;-55
2024/01/07 16:35:59;;;;;;;42.90;22.50;;;-3.40;99.90;;;;;;5112767;28;20039;-60
2024/01/07 16:38:25;;;;;;;42.40;21.38;;;-3.50;99.90;;;;;;5109429;28;20377;-58
2024/01/07 16:40:50;;;;;;;42.83;22.70;;;-3.60;99.90;;;;;;5109705;28;20027;-60
2024/01/07 16:43:16;;;;;;;43.57;22.80;;;-3.60;99.90;;;;;;5109513;28;20542;-60
2024/01/07 16:45:41;;;;;;;46.83;23.03;;;-3.70;99.90;;;;;;5108805;28;20174;-55
2024/01/07 16:48:07;;;;;;;45.87;22.83;;;-3.70;99.90;;;;;;5109318;28;20104;-59
2024/01/07 16:50:33;;;;;;;50.33;22.80;;;-3.70;99.90;;;;;;5108855;28;20059;-60
2024/01/07 16:52:59;;;;;;;49.37;23.00;;;-3.70;99.90;;;;;;5109014;28;20107;-59
2024/01/07 16:55:24;;;;;;;49.73;22.47;;;-3.80;99.90;;;;;;5114167;27;20043;-58
2024/01/07 16:57:50;;;;;;;47.37;23.10;;;-3.70;99.90;;;;;;5119369;27;20023;-58
2024/01/07 17:00:17;;;;;;;46.00;22.60;;;-3.80;99.90;;;;;;5120010;27;20038;-60
2024/01/07 17:02:42;;;;;;;;;;;-3.80;99.90;;;;;;5120082;27;20197;-62
2024/01/07 17:05:09;;;;;;;44.72;22.77;;;-3.80;99.90;;;;;;5115869;27;20017;-63
2024/01/07 17:07:35;;;;;;;46.35;22.90;;;-3.70;99.90;;;;;;5110326;27;20081;-58
2024/01/07 17:10:01;;;;;;;47.47;23.80;;;-3.70;99.90;;;;;;5117210;27;20035;-61
2024/01/07 17:12:27;;;;;;;41.63;21.30;;;-3.60;99.90;;;;;;5117070;27;20102;-58
2024/01/07 17:14:54;;;;;;;37.60;19.23;;;-3.70;99.90;;;;;;5117571;27;20057;-63
2024/01/07 17:17:19;;;;;;;38.95;19.77;;;-3.70;99.90;;;;;;5109075;27;20024;-63
2024/01/07 17:19:46;;;;;;;36.87;19.33;;;-3.80;99.90;;;;;;5107632;28;20050;-56
2024/01/07 17:22:12;;;;;;;36.90;19.20;;;-3.70;99.90;;;;;;5108344;28;20080;-56
2024/01/07 17:24:37;;;;;;;34.03;17.33;;;-3.80;99.90;;;;;;5115533;27;20051;-57
2024/01/07 17:27:03;;;;;;;37.70;18.33;;;-3.80;99.90;;;;;;5118787;27;20027;-56
2024/01/07 17:29:29;;;;;;;32.20;16.63;;;-3.90;99.90;;;;;;5117268;27;20051;-58
2024/01/07 17:31:54;;;;;;;33.97;17.23;;;-3.90;99.90;;;;;;5114992;27;20170;-59
2024/01/07 17:34:20;;;;;;;34.43;16.70;;;-4.00;99.90;;;;;;5118539;27;20134;-65
2024/01/07 17:36:46;;;;;;;38.57;18.80;;;-4.00;99.90;;;;;;5112940;27;20030;-59
2024/01/07 17:39:12;;;;;;;37.33;17.58;;;-4.00;99.90;;;;;;5108430;28;20032;-61
2024/01/07 17:41:38;;;;;;;36.13;17.27;;;-3.80;99.90;;;;;;5108067;28;20026;-65
2024/01/07 17:44:06;;;;;;;37.77;18.03;;;-3.80;99.90;;;;;;5108027;28;20035;-58
2024/01/07 17:46:33;;;;;;;39.47;18.70;;;-3.80;99.90;;;;;;5107570;28;20035;-58
2024/01/07 17:49:00;;;;;;;36.65;17.98;;;-3.70;99.90;;;;;;5108108;28;20073;-57
2024/01/07 17:51:27;;;;;;;44.50;20.23;;;-3.70;99.90;;;;;;5107683;28;20436;-59
2024/01/07 17:53:53;;;;;;;38.38;19.98;;;-3.70;99.90;;;;;;5108285;28;20051;-58
2024/01/07 17:56:19;;;;;;;37.53;19.63;;;-3.70;99.90;;;;;;5108366;28;20023;-59
2024/01/07 17:58:45;;;;;;;37.28;19.33;;;-3.70;99.90;;;;;;5106739;28;20024;-57
2024/01/07 18:01:11;;;;;;;39.70;19.10;;;-3.70;99.90;;;;;;5089444;28;20123;-56
2024/01/07 18:03:37;;;;;;;36.30;18.98;;;-3.80;99.90;;;;;;5107176;28;20372;-56
2024/01/07 18:06:03;;;;;;;35.80;19.13;;;-3.80;99.90;;;;;;5107496;28;20023;-55
2024/01/07 18:08:29;;;;;;;35.70;18.67;;;-3.80;99.90;;;;;;5107826;28;20443;-59
2024/01/07 18:10:55;;;;;;;28.83;15.80;;;-3.90;99.90;;;;;;5107446;28;20103;-57
2024/01/07 18:13:23;;;;;;;32.47;16.45;;;-4.00;99.90;;;;;;5107693;28;20036;-57
2024/01/07 18:15:49;;;;;;;29.90;15.90;;;-4.00;99.90;;;;;;5108195;28;20553;-57
2024/01/07 18:18:15;;;;;;;32.50;15.25;;;-4.00;99.90;;;;;;5107462;28;20031;-57
2024/01/07 18:20:41;;;;;;;31.73;15.83;;;-4.00;99.90;;;;;;5107178;28;20497;-59
2024/01/07 18:23:10;;;;;;;29.73;16.13;;;-4.00;99.90;;;;;;5106797;28;20059;-61
2024/01/07 18:25:37;;;;;;;32.40;15.70;;;-4.10;99.90;;;;;;5106584;28;20746;-57
2024/01/07 18:28:03;;;;;;;30.92;15.18;;;-4.00;99.90;;;;;;5106284;28;20685;-59
2024/01/07 18:30:28;;;;;;;29.58;15.15;;;-4.10;99.90;;;;;;5107167;28;20031;-56
2024/01/07 18:32:54;;;;;;;29.87;14.20;;;-4.20;99.90;;;;;;5106825;28;20501;-59
2024/01/07 18:35:20;;;;;;;31.57;14.93;;;-4.20;99.90;;;;;;5105013;28;20837;-59
2024/01/07 18:37:49;;;;;;;38.05;17.05;;;-4.20;99.90;;;;;;5105736;28;20465;-58
2024/01/07 18:40:20;;;;;;;32.88;16.25;;;-4.20;99.90;;;;;;5106057;28;20028;-62
2024/01/07 18:42:47;;;;;;;37.05;17.70;;;-4.20;99.90;;;;;;5106514;28;20036;-57
2024/01/07 18:45:14;;;;;;;30.52;15.30;;;-4.20;99.90;;;;;;5105366;28;20138;-59
2024/01/07 18:47:40;;;;;;;37.83;16.80;;;-4.20;99.90;;;;;;5106039;28;20084;-57
2024/01/07 18:50:06;;;;;;;28.67;14.00;;;-4.30;99.90;;;;;;5106521;28;20069;-57
2024/01/07 18:52:33;;;;;;;33.57;16.10;;;-4.30;99.90;;;;;;5105971;28;20544;-59
2024/01/07 18:54:58;;;;;;;30.77;16.00;;;-4.30;99.90;;;;;;5106007;28;20129;-57
2024/01/07 18:57:24;;;;;;;30.87;15.10;;;-4.20;99.90;;;;;;5106341;28;20106;-58
2024/01/07 18:59:50;;;;;;;30.93;15.93;;;-4.20;99.90;;;;;;5106559;28;20120;-56
2024/01/07 19:02:16;;;;;;;32.03;14.97;;;-4.30;99.90;;;;;;5107118;28;20030;-58
2024/01/07 19:04:42;;;;;;;32.03;14.63;;;-4.20;99.90;;;;;;5107298;28;20043;-54
2024/01/07 19:07:08;;;;;;;37.67;16.57;;;-4.20;99.90;;;;;;5087342;28;20047;-59
2024/01/07 19:09:34;;;;;;;32.22;17.23;;;-4.20;99.90;;;;;;5103571;28;20118;-62
2024/01/07 19:12:01;;;;;;;38.55;16.52;;;-4.30;99.90;;;;;;5106033;28;20061;-57
2024/01/07 19:14:28;;;;;;;35.03;15.68;;;-4.30;99.90;;;;;;5106960;28;20039;-55
2024/01/07 19:16:53;;;;;;;34.22;16.25;;;-4.30;99.90;;;;;;5106849;28;20400;-57
2024/01/07 19:19:19;;;;;;;32.80;13.53;;;-4.30;99.90;;;;;;5106719;28;20035;-59
2024/01/07 19:21:45;;;;;;;27.87;14.17;;;-4.20;99.90;;;;;;5105241;28;20506;-58
2024/01/07 19:24:10;;;;;;;32.17;14.77;;;-4.20;99.90;;;;;;5098402;28;20121;-58
2024/01/07 19:26:38;;;;;;;32.13;16.67;;;-4.20;99.90;;;;;;5073027;28;20035;-58
2024/01/07 19:29:04;;;;;;;34.83;15.95;;;-4.20;99.90;;;;;;5106827;28;20042;-58
2024/01/07 19:31:30;;;;;;;40.50;19.67;;;-4.20;99.90;;;;;;5105816;28;20028;-56
2024/01/07 19:33:56;;;;;;;33.00;16.80;;;-4.20;99.90;;;;;;5088241;28;20066;-58
2024/01/07 19:36:21;;;;;;;33.00;15.47;;;-4.20;99.90;;;;;;5088927;28;20529;-56
2024/01/07 19:38:52;;;;;;;37.03;17.70;;;-4.10;99.90;;;;;;5115647;28;20027;-56
2024/01/07 19:41:25;;;;;;;40.17;18.60;;;-4.20;99.90;;;;;;5110193;28;20039;-54
2024/01/07 19:43:51;;;;;;;44.03;20.73;;;-4.20;99.90;;;;;;5104333;28;20073;-55
2024/01/07 19:46:27;;;;;;;42.13;21.02;;;-4.20;99.90;;;;;;5105905;28;20475;-57
2024/01/07 19:48:54;;;;;;;57.33;24.35;;;-4.10;99.90;;;;;;5106276;28;20067;-57
2024/01/07 19:51:23;;;;;;;58.50;24.92;;;-4.20;99.90;;;;;;5105466;28;20028;-59
2024/01/07 19:53:51;;;;;;;43.35;20.85;;;-4.20;99.90;;;;;;5100310;28;20054;-63
2024/01/07 19:56:18;;;;;;;33.67;18.23;;;-4.30;99.90;;;;;;5105254;28;20045;-61
2024/01/07 19:58:47;;;;;;;39.38;18.65;;;-4.30;99.90;;;;;;5106050;28;20031;-59
2024/01/07 20:01:14;;;;;;;37.55;18.05;;;-4.20;99.90;;;;;;5106543;28;20023;-57
2024/01/07 20:03:41;;;;;;;35.30;17.80;;;-4.30;99.90;;;;;;5102699;28;20097;-57
2024/01/07 20:06:14;;;;;;;34.30;17.77;;;-4.30;99.90;;;;;;5105079;28;20043;-58
2024/01/07 20:08:44;;;;;;;40.60;18.27;;;-4.40;99.90;;;;;;5102753;28;20060;-60
2024/01/07 20:11:21;;;;;;;52.17;23.45;;;-4.30;99.90;;;;;;5107095;28;20049;-58
2024/01/07 20:13:47;;;;;;;54.30;21.20;;;-4.30;99.90;;;;;;5105648;28;20031;-61
2024/01/07 20:16:15;;;;;;;52.78;21.88;;;-4.30;99.90;;;;;;5109713;28;20020;-59
2024/01/07 20:18:44;;;;;;;41.38;19.83;;;-4.30;99.90;;;;;;5109694;28;20381;-57
2024/01/07 20:21:24;;;;;;;41.40;21.30;;;-4.20;99.90;;;;;;5114543;27;20028;-58
2024/01/07 20:23:54;;;;;;;42.20;20.42;;;-4.20;99.90;;;;;;5107908;27;20130;-58
2024/01/07 20:26:22;;;;;;;37.45;19.40;;;-4.20;99.90;;;;;;5110104;28;20474;-59
2024/01/07 20:28:49;;;;;;;40.33;20.08;;;-4.30;99.90;;;;;;5109393;28;20028;-56
2024/01/07 20:31:15;;;;;;;;;;;-4.30;99.90;;;;;;5110138;28;20028;-56
2024/01/07 20:33:42;;;;;;;47.08;22.45;;;-4.20;99.90;;;;;;5108974;28;19908;-56
2024/01/07 20:36:08;;;;;;;57.65;27.55;;;-4.30;99.90;;;;;;5109409;28;20028;-60
2024/01/07 20:38:35;;;;;;;60.95;27.67;;;-4.30;99.90;;;;;;5109001;28;20402;-59
2024/01/07 20:41:01;;;;;;;60.30;28.67;;;-4.40;99.90;;;;;;5109309;28;20028;-59
2024/01/07 20:43:27;;;;;;;56.72;28.77;;;-4.40;99.90;;;;;;5057166;28;20047;-62
2024/01/07 20:45:55;;;;;;;63.50;29.70;;;-4.40;99.90;;;;;;5109337;28;20023;-58
2024/01/07 20:48:21;;;;;;;61.30;29.27;;;-4.40;99.90;;;;;;5091356;28;20027;-57
2024/01/07 20:50:47;;;;;;;63.23;29.87;;;-4.40;99.90;;;;;;5109444;28;20483;-57
2024/01/07 20:53:13;;;;;;;63.73;29.00;;;-4.30;99.90;;;;;;5109349;28;20030;-56
2024/01/07 20:55:39;;;;;;;56.63;27.87;;;-4.40;99.90;;;;;;5108512;28;20019;-58
2024/01/07 20:58:06;;;;;;;57.70;27.93;;;-4.50;99.90;;;;;;5108898;28;20136;-56
2024/01/07 21:00:32;;;;;;;55.50;27.38;;;-4.50;99.90;;;;;;5108720;28;20030;-57
2024/01/07 21:02:58;;;;;;;57.87;28.57;;;-4.50;99.90;;;;;;5089454;28;20024;-58
2024/01/07 21:05:24;;;;;;;56.00;26.93;;;-4.50;99.90;;;;;;5108326;28;20028;-61
2024/01/07 21:07:49;;;;;;;51.27;26.23;;;-4.50;99.90;;;;;;5108645;28;20377;-58
2024/01/07 21:10:16;;;;;;;63.60;29.60;;;-4.60;99.90;;;;;;5108559;28;20039;-58
2024/01/07 21:12:42;;;;;;;64.65;30.88;;;-4.60;99.90;;;;;;5090296;28;20111;-60
2024/01/07 21:15:09;;;;;;;56.25;30.08;;;-4.60;99.90;;;;;;5105922;28;20482;-56
2024/01/07 21:17:38;;;;;;;55.30;29.42;;;-4.50;99.90;;;;;;5108517;28;20031;-58
2024/01/07 21:20:06;;;;;;;60.45;29.88;;;-4.50;99.90;;;;;;5108656;28;20079;-57
2024/01/07 21:22:31;;;;;;;70.47;31.55;;;-4.60;99.90;;;;;;5108134;28;20036;-61
2024/01/07 21:24:57;;;;;;;56.97;28.43;;;-4.60;99.90;;;;;;5108380;28;20109;-58
2024/01/07 21:27:23;;;;;;;59.33;30.97;;;-4.60;99.90;;;;;;5107984;28;20026;-57
2024/01/07 21:29:49;;;;;;;67.83;31.40;;;-4.70;99.90;;;;;;5109325;28;20119;-59
2024/01/07 21:32:14;;;;;;;54.63;28.35;;;-4.70;99.90;;;;;;5109214;28;20725;-57
2024/01/07 21:34:40;;;;;;;63.50;28.87;;;-4.70;99.90;;;;;;5109462;28;20057;-58
2024/01/07 21:37:06;;;;;;;58.70;29.50;;;-4.70;99.90;;;;;;5108232;28;20111;-56
2024/01/07 21:39:31;;;;;;;66.50;29.03;;;-4.70;99.90;;;;;;5108816;28;20539;-57
2024/01/07 21:41:57;;;;;;;48.00;23.73;;;-4.70;99.90;;;;;;5108319;28;20022;-58
2024/01/07 21:44:23;;;;;;;53.77;27.37;;;-4.70;99.90;;;;;;5090415;28;20020;-58
2024/01/07 21:46:48;;;;;;;63.77;29.03;;;-4.70;99.90;;;;;;5108319;28;20053;-60
2024/01/07 21:49:14;;;;;;;64.43;29.10;;;-4.80;99.90;;;;;;5109322;28;20031;-60
2024/01/07 21:51:40;;;;;;;57.47;27.60;;;-4.80;99.90;;;;;;5107450;28;20356;-60
2024/01/07 21:54:07;;;;;;;63.93;29.63;;;-4.80;99.90;;;;;;5108272;28;20023;-63
2024/01/07 21:56:32;;;;;;;59.42;27.45;;;-4.90;99.90;;;;;;5109794;28;20077;-58
2024/01/07 21:58:58;;;;;;;71.70;29.60;;;-4.80;99.90;;;;;;5109365;28;20039;-55
2024/01/07 22:01:24;;;;;;;62.75;28.70;;;-4.90;99.90;;;;;;5109086;28;20035;-57
2024/01/07 22:03:50;;;;;;;59.77;29.93;;;-4.80;99.90;;;;;;5108981;28;20032;-59
2024/01/07 22:06:16;;;;;;;64.90;29.43;;;-4.80;99.90;;;;;;5108733;28;20032;-56
2024/01/07 22:08:41;;;;;;;62.50;29.90;;;-4.80;99.90;;;;;;5108423;28;20151;-59
2024/01/07 22:11:17;;;;;;;61.40;29.93;;;-4.90;99.90;;;;;;5108888;28;20358;-62
2024/01/07 22:13:44;;;;;;;62.03;30.17;;;-5.00;99.90;;;;;;5108841;28;20139;-63
2024/01/07 22:16:12;;;;;;;;;;;-5.00;99.90;;;;;;5107538;28;20080;-65
2024/01/07 22:18:39;;;;;;;60.67;29.20;;;-4.90;99.90;;;;;;5107686;28;19908;-59
2024/01/07 22:21:05;;;;;;;64.03;30.60;;;-5.00;99.90;;;;;;5108198;28;20023;-55
2024/01/07 22:23:31;;;;;;;61.22;30.08;;;-4.90;99.90;;;;;;5106958;28;20072;-61
2024/01/07 22:25:56;;;;;;;65.30;31.53;;;-4.90;99.90;;;;;;5107537;28;20437;-60
2024/01/07 22:28:22;;;;;;;66.30;30.27;;;-4.90;99.90;;;;;;5088850;28;20027;-61
2024/01/07 22:30:48;;;;;;;54.43;28.00;;;-4.90;99.90;;;;;;5107416;28;20103;-62
2024/01/07 22:33:14;;;;;;;64.57;30.67;;;-5.00;99.90;;;;;;5106292;28;20028;-58
2024/01/07 22:35:39;;;;;;;63.33;30.17;;;-5.00;99.90;;;;;;5106656;28;20069;-60
2024/01/07 22:38:05;;;;;;;66.13;32.37;;;-4.90;99.90;;;;;;5107147;28;20293;-60
